Ana Sayfa
METAR-TAF:

METAR-TAF

Havaalanları :

Dakar, Senegal

Enlem: 14-44N, Boylam: 017-30W, yükseklik: 27 m

Güncel hava durumu gözlemi

Rapor saat 07:00 UTC de 34 dakika önce yapıldı.
Rüzgar doğudan 4 kt
Sıcaklık 26°C
Nem 89%
Basınç 1013 hPa
Görüş mesafesi 10 km veya daha fazla
1100 ft yükseklikte parçalı bulutlu
3000 ft yükseklikte az bulutlu, Kümülonimbus.

METAR: GOOY 250700Z 10004KT 9999 SCT011 FEW030CB 26/24 Q1013

Saat: 07:34 (07:34 UTC)

Tahmin

Rapor saat 05:30 UTC de 2 saat ve 4 dakika önce yapıldı.
Ayın 25'si saat 06 UTC'den ayın 26'si saat 12 UTC'ye kadar geçerli Tahmin
Rüzgar doğu/kuzeydoğudan 6 kt
Görüş mesafesi 10 km veya daha fazla
1100 ft yükseklikte parçalı bulutlu
Dönüşüyor
ayın 25'si saat 18 UTC'den ayın 25'si saat 20 UTC'ye kadar
Rüzgar kuzeybatıdan 10 kt

TAF: GOOY 250530Z 2506/2612 06006KT 9999 SCT011 BECMG 2518/2520 32010KT

4.000'den fazla havaalanı için hava durumu gözlemleri ve tahminleri (METAR ve TAF raporları).

Kullanılabilir istasyonlar harita üzerinde sarı ve kırmızı noktalarla gösterilir.

İstasyonun adını görmek için fareyi noktanın üzerinde gezdirin.

Sonrasında hava gözlem ve tahminlerini görmek için tıklayın.

Haritayı değiştirmek için: yaklaştırmak için siyah artı işaretli yeşil düğmeye ve uzaklaştırmak için de eksi işaretli düğmeye hızla tıklayın; bitişik haritalar için yeşil okları kullanın.


METAR-TAF: